Gays Mills, WI

12:40 AM CST on December 04, 2016 (GMT -0600)
Soldiers Grove area (hilltop) | | Change Station
Active Advisory: Winter Weather Advisory

Elev 1132 ft 43.42 °N, 90.86 °W | Updated 1 second ago

Overcast
Overcast
31.0 °F
Feels Like 26 °F
N
5.0
Wind Variable Wind from SSE
Gusts 0.0 mph

Today
High -- | Low -- °F
--% Chance of Precip.
Yesterday
High -- | Low -- °F
Precip. -- in
Pressure 30.24 in
Visibility 10.0 miles
Clouds Scattered Clouds 2900 ft
Overcast 6500 ft
Windchill 26 °F
Dew Point 28 °F
Humidity 90%
Rainfall 0.00 in
Snow Depth Not available.
7:19 AM 4:27 PM
Waxing Crescent, 20% visible
METAR KOVS 040553Z AUTO 00000KT 10SM SCT029 OVC065 02/M02 A3022 RMK AO2 SLP240 T00171022 10017 20000 400220000 58008
Pressure 30.24 in
Visibility 10.0 miles
Clouds Scattered Clouds 2900 ft
Overcast 6500 ft
Windchill 26 °F
Dew Point 28 °F
Humidity 90%
Rainfall 0.00 in
Snow Depth Not available.
7:19 AM 4:27 PM
Waxing Crescent, 20% visible
METAR KOVS 040553Z AUTO 00000KT 10SM SCT029 OVC065 02/M02 A3022 RMK AO2 SLP240 T00171022 10017 20000 400220000 58008

10-Day Weather Forecast

Almanac

Astronomy

Dec. 04, 2016 Rise Set
Actual Time
Civil Twilight
Nautical Twilight
Astronomical Twilight
Moon
Length of Visible Light
Length of Day
Tomorrow will be .
, % of the Moon is Illuminated

Today's Extremes

State Highs State Lows

Community

WunderPhotos

Upload Photos

1,955,588 photos uploaded!

WunderBlog® & News

Nearby

Air Quality

  Air Quality AQ Index Pollutant
Not available.

Snow Depth

Station Depth Elevation

Earthquake Activity

City Distance Mag. Time & Date
Minimum magnitude displayed is 2.5.

Coastal Water Temperatures

Place Temperature

Stations

Nearby Weather Stations

Station Location Temp. Windchill Dew Point Humidity Wind Precip. Elev Updated Type
                   

Watches & Warnings

Winter Weather Advisory
Issued: 10:56 PM CST Dec. 3, 2016 – National Weather Service

... Winter Weather Advisory remains in effect from 3 am to 3 PM
CST Sunday...

* expect snow to move in overnight and then diminish around 3 PM
Sunday.

* The heaviest snowfall rates will occur between 6 am and noon
Sunday.

* Total snow accumulations of 2 to 4 inches are expected.

* Look for reduced visibilities at times.

* Plan on slippery Road conditions.

Precautionary/preparedness actions...

A Winter Weather Advisory means that periods of snow... sleet or
freezing rain will cause travel difficulties. Be prepared for
slippery roads and limited visibilities... and use caution while
driving. The latest Road conditions for the state you are calling
from can be obtained by calling 5 1 1.